Time;durP1;ratioP1;P1;durP2;ratioP2;P2;SDS_P1;SDS_P2;PMS_P1;PMS_P2;Temp;Humidity;BMP_temperature;BMP_pressure;BME280_temperature;BME280_humidity;BME280_pressure;Samples;Min_cycle;Max_cycle;Signal;HPM_P1;HPM_P2
2023/03/18 00:01:53;;;;;;;9.50;6.23;;;10.50;1.00;;;;;;5039779;28;20189;-51
2023/03/18 00:04:19;;;;;;;11.37;6.40;;;10.40;1.00;;;;;;5039833;28;20440;-51
2023/03/18 00:06:45;;;;;;;8.90;6.50;;;10.40;1.00;;;;;;5040146;28;20502;-50
2023/03/18 00:09:12;;;;;;;10.20;6.50;;;10.40;1.00;;;;;;5040028;28;20178;-49
2023/03/18 00:11:39;;;;;;;8.47;6.57;;;10.40;1.00;;;;;;5040014;28;20800;-50
2023/03/18 00:14:05;;;;;;;10.53;7.20;;;10.40;1.00;;;;;;5040021;28;20456;-50
2023/03/18 00:16:31;;;;;;;9.87;6.50;;;10.30;1.00;;;;;;5039677;28;20416;-50
2023/03/18 00:18:56;;;;;;;9.60;6.27;;;10.30;1.00;;;;;;5039548;28;20923;-49
2023/03/18 00:21:22;;;;;;;7.50;5.63;;;10.30;1.00;;;;;;5039918;28;20220;-49
2023/03/18 00:23:49;;;;;;;12.07;6.73;;;10.40;1.00;;;;;;5039576;28;20193;-50
2023/03/18 00:26:16;;;;;;;9.17;6.10;;;10.40;1.00;;;;;;5039813;28;20189;-50
2023/03/18 00:28:41;;;;;;;13.70;6.10;;;10.40;1.00;;;;;;5039620;28;20896;-50
2023/03/18 00:31:09;;;;;;;11.00;6.03;;;10.40;1.00;;;;;;5039880;28;20464;-50
2023/03/18 00:33:39;;;;;;;10.30;5.40;;;10.40;1.00;;;;;;5039752;28;20232;-49
2023/03/18 00:36:08;;;;;;;9.43;5.60;;;10.50;1.00;;;;;;5039991;28;20416;-50
2023/03/18 00:38:35;;;;;;;9.40;6.37;;;10.40;1.00;;;;;;5040039;28;20462;-51
2023/03/18 00:41:09;;;;;;;18.47;6.60;;;10.50;1.00;;;;;;5039399;28;20427;-50
2023/03/18 00:43:44;;;;;;;7.53;5.70;;;10.60;1.00;;;;;;5039660;28;20955;-50
2023/03/18 00:46:11;;;;;;;9.37;6.03;;;10.50;1.00;;;;;;5039443;28;20413;-50
2023/03/18 00:48:37;;;;;;;14.33;6.17;;;10.60;1.00;;;;;;5039439;28;20478;-49
2023/03/18 00:51:03;;;;;;;9.13;6.10;;;10.70;1.00;;;;;;5039322;28;20464;-49
2023/03/18 00:53:29;;;;;;;11.37;6.40;;;10.80;1.00;;;;;;5039542;28;20767;-49
2023/03/18 00:55:55;;;;;;;10.17;6.43;;;10.80;1.00;;;;;;5039168;28;20428;-49
2023/03/18 00:58:21;;;;;;;10.90;5.50;;;10.80;1.00;;;;;;5039583;28;20186;-49
2023/03/18 01:00:47;;;;;;;9.93;5.47;;;10.80;1.00;;;;;;5039739;28;20700;-49
2023/03/18 01:03:13;;;;;;;7.93;5.83;;;10.80;1.00;;;;;;5038800;28;20651;-49
2023/03/18 01:05:39;;;;;;;8.50;5.73;;;10.80;1.00;;;;;;5035525;28;20473;-49
2023/03/18 01:08:05;;;;;;;8.43;5.20;;;10.80;1.00;;;;;;5036230;28;20571;-50
2023/03/18 01:10:31;;;;;;;9.60;5.23;;;10.90;1.00;;;;;;5036041;28;20456;-49
2023/03/18 01:12:57;;;;;;;8.30;5.33;;;10.90;1.00;;;;;;5036177;28;20948;-49
2023/03/18 01:15:23;;;;;;;11.77;5.70;;;10.90;1.00;;;;;;5036215;28;20408;-49
2023/03/18 01:17:49;;;;;;;6.60;4.63;;;10.90;1.00;;;;;;5036089;28;20955;-49
2023/03/18 01:20:18;;;;;;;7.47;5.03;;;11.00;1.00;;;;;;5035978;28;20474;-49
2023/03/18 01:22:44;;;;;;;9.30;4.70;;;11.00;1.00;;;;;;5036022;28;20975;-50
2023/03/18 01:25:12;;;;;;;9.63;4.83;;;11.00;1.00;;;;;;5035978;28;20471;-49
2023/03/18 01:27:38;;;;;;;8.10;5.00;;;11.00;1.00;;;;;;5035930;28;20468;-49
2023/03/18 01:30:05;;;;;;;8.20;5.40;;;10.90;1.00;;;;;;5035999;28;21095;-49
2023/03/18 01:32:31;;;;;;;8.70;5.30;;;10.90;1.00;;;;;;5035651;28;20558;-50
2023/03/18 01:34:58;;;;;;;6.80;4.80;;;10.90;1.00;;;;;;5035833;28;20424;-49
2023/03/18 01:37:24;;;;;;;7.23;4.93;;;10.80;1.00;;;;;;5035425;28;20890;-49
2023/03/18 01:39:50;;;;;;;7.67;5.33;;;10.80;1.00;;;;;;5035502;28;20413;-50
2023/03/18 01:42:17;;;;;;;8.17;5.50;;;10.80;1.00;;;;;;5035628;28;20702;-50
2023/03/18 01:44:45;;;;;;;6.83;5.00;;;10.70;1.00;;;;;;5035078;28;20236;-50
2023/03/18 01:47:11;;;;;;;7.73;5.13;;;10.70;1.00;;;;;;5035899;28;20421;-49
2023/03/18 01:49:44;;;;;;;11.53;5.27;;;10.80;1.00;;;;;;5035561;28;20473;-50
2023/03/18 01:52:20;;;;;;;7.17;5.40;;;10.80;1.00;;;;;;5035354;28;20431;-51
2023/03/18 01:54:58;;;;;;;8.33;5.13;;;10.80;1.00;;;;;;5034205;28;20490;-50
2023/03/18 01:57:24;;;;;;;11.00;4.90;;;10.80;1.00;;;;;;5035231;28;20472;-50
2023/03/18 01:59:52;;;;;;;6.67;5.10;;;10.80;1.00;;;;;;5034891;28;20420;-51
2023/03/18 02:02:19;;;;;;;7.70;5.23;;;10.70;1.00;;;;;;5035388;28;20420;-50
2023/03/18 02:04:57;;;;;;;8.20;4.80;;;10.70;1.00;;;;;;5034983;28;20912;-50
2023/03/18 02:07:24;;;;;;;7.10;5.07;;;10.70;1.00;;;;;;5035027;28;20416;-50
2023/03/18 02:09:51;;;;;;;7.03;4.67;;;10.70;1.00;;;;;;5035191;28;20421;-50
2023/03/18 02:12:27;;;;;;;7.77;4.10;;;10.70;1.00;;;;;;5034938;28;20453;-50
2023/03/18 02:14:54;;;;;;;7.30;4.37;;;10.80;1.00;;;;;;5034668;28;20413;-50
2023/03/18 02:17:23;;;;;;;8.70;4.50;;;10.80;1.00;;;;;;5034048;28;20429;-50
2023/03/18 02:20:30;;;;;;;8.63;4.30;;;10.90;1.00;;;;;;5035495;28;20513;-50
2023/03/18 02:23:04;;;;;;;8.70;3.83;;;11.00;1.00;;;;;;5012558;28;20860;-50
2023/03/18 02:25:38;;;;;;;6.03;3.50;;;11.10;1.00;;;;;;5031597;28;20520;-50
2023/03/18 02:28:09;;;;;;;8.00;3.90;;;11.20;1.00;;;;;;5034770;28;20448;-50
2023/03/18 02:30:44;;;;;;;6.40;3.93;;;11.20;1.00;;;;;;5034592;28;20460;-49
2023/03/18 02:33:12;;;;;;;9.20;4.13;;;11.30;1.00;;;;;;5034723;28;20444;-50
2023/03/18 02:35:38;;;;;;;6.97;4.37;;;11.40;1.00;;;;;;5034522;28;20417;-50
2023/03/18 02:38:04;;;;;;;11.40;4.53;;;11.30;1.00;;;;;;5034779;28;20425;-50
2023/03/18 02:40:32;;;;;;;6.60;4.27;;;11.30;1.00;;;;;;5034531;28;20773;-50
2023/03/18 02:43:15;;;;;;;5.73;4.17;;;11.20;1.00;;;;;;5034143;28;20299;-50
2023/03/18 02:45:51;;;;;;;8.27;4.17;;;11.30;1.00;;;;;;5034485;28;20473;-49
2023/03/18 02:48:19;;;;;;;7.37;4.60;;;11.30;1.00;;;;;;5034526;28;20744;-50
2023/03/18 02:50:46;;;;;;;5.30;4.27;;;11.20;1.00;;;;;;5034217;28;20495;-50
2023/03/18 02:53:12;;;;;;;8.30;4.33;;;11.20;1.00;;;;;;5034680;28;20466;-50
2023/03/18 02:55:38;;;;;;;8.90;4.87;;;11.10;1.00;;;;;;5033122;28;20935;-50
2023/03/18 02:58:04;;;;;;;5.60;4.07;;;11.20;1.00;;;;;;5034379;28;20414;-50
2023/03/18 03:00:30;;;;;;;8.07;4.30;;;11.20;1.00;;;;;;5034213;28;20265;-49
2023/03/18 03:02:55;;;;;;;9.97;5.17;;;11.20;1.00;;;;;;5034397;28;20464;-50
2023/03/18 03:05:21;;;;;;;5.70;4.40;;;11.00;1.00;;;;;;5034452;28;20633;-50
2023/03/18 03:07:46;;;;;;;8.77;4.20;;;11.00;1.00;;;;;;5033979;28;20178;-50
2023/03/18 03:10:13;;;;;;;7.20;4.70;;;11.00;1.00;;;;;;5034164;28;20268;-50
2023/03/18 03:12:39;;;;;;;5.90;4.43;;;11.20;1.00;;;;;;5033962;28;20199;-51
2023/03/18 03:15:07;;;;;;;8.37;4.73;;;11.10;1.00;;;;;;5033974;28;20417;-49
2023/03/18 03:17:33;;;;;;;7.37;5.30;;;11.10;1.00;;;;;;5034158;28;20853;-50
2023/03/18 03:19:59;;;;;;;14.10;5.00;;;11.00;1.00;;;;;;5034162;28;20457;-50
2023/03/18 03:22:25;;;;;;;7.40;5.00;;;11.00;1.00;;;;;;5033643;28;20520;-50
2023/03/18 03:24:52;;;;;;;12.33;5.33;;;10.90;1.00;;;;;;5033775;28;20430;-50
2023/03/18 03:27:18;;;;;;;7.57;5.10;;;10.80;1.00;;;;;;5033452;28;20412;-50
2023/03/18 03:29:43;;;;;;;10.50;5.07;;;10.80;1.00;;;;;;5033932;28;20423;-50
2023/03/18 03:32:09;;;;;;;8.77;5.00;;;10.80;1.00;;;;;;5033596;28;20751;-50
2023/03/18 03:34:35;;;;;;;9.80;5.50;;;10.80;1.00;;;;;;5033694;28;20235;-49
2023/03/18 03:37:01;;;;;;;8.83;5.20;;;10.80;1.00;;;;;;5033583;28;20209;-50
2023/03/18 03:39:26;;;;;;;8.10;5.00;;;10.70;1.00;;;;;;5033163;28;20209;-50
2023/03/18 03:41:52;;;;;;;9.17;5.40;;;10.70;1.00;;;;;;5033514;28;20201;-50
2023/03/18 03:44:18;;;;;;;12.63;5.63;;;10.70;1.00;;;;;;5033095;28;20316;-50
2023/03/18 03:46:44;;;;;;;9.37;5.30;;;10.60;1.00;;;;;;5033279;28;20186;-49
2023/03/18 03:49:11;;;;;;;12.90;5.73;;;10.60;1.00;;;;;;5033269;28;20526;-50
2023/03/18 03:51:36;;;;;;;10.60;5.87;;;10.60;1.00;;;;;;5033384;28;20460;-50
2023/03/18 03:54:02;;;;;;;13.33;5.80;;;10.60;1.00;;;;;;5033571;28;20899;-49
2023/03/18 03:56:30;;;;;;;11.17;5.77;;;10.50;1.00;;;;;;5033205;28;20650;-50
2023/03/18 03:58:56;;;;;;;8.70;5.87;;;10.50;1.00;;;;;;5033632;28;20283;-50
2023/03/18 04:01:22;;;;;;;7.50;5.07;;;10.50;1.00;;;;;;5033076;28;20510;-49
2023/03/18 04:03:48;;;;;;;7.90;5.10;;;10.50;1.00;;;;;;5033204;28;20416;-50
2023/03/18 04:06:14;;;;;;;9.80;5.60;;;10.50;1.00;;;;;;5033425;28;20245;-50
2023/03/18 04:08:40;;;;;;;9.90;5.80;;;10.50;1.00;;;;;;5033254;28;20417;-50
2023/03/18 04:11:06;;;;;;;6.90;5.90;;;10.50;9.90;;;;;;5033285;28;20221;-49
2023/03/18 04:13:33;;;;;;;10.13;6.27;;;10.50;9.20;;;;;;5033613;28;20460;-50
2023/03/18 04:15:58;;;;;;;7.90;5.90;;;10.50;9.80;;;;;;5033370;28;20424;-50
2023/03/18 04:18:24;;;;;;;12.47;6.10;;;10.50;22.60;;;;;;5033361;28;20423;-50
2023/03/18 04:20:50;;;;;;;13.70;6.53;;;10.60;16.80;;;;;;5033415;28;20429;-50
2023/03/18 04:23:16;;;;;;;10.73;6.27;;;10.60;17.10;;;;;;5033522;28;21093;-50
2023/03/18 04:25:42;;;;;;;8.83;6.83;;;10.50;12.00;;;;;;5033085;28;20190;-50
2023/03/18 04:28:08;;;;;;;12.50;6.83;;;10.40;38.60;;;;;;5033253;28;20179;-50
2023/03/18 04:30:34;;;;;;;11.97;7.10;;;10.50;49.30;;;;;;5032865;28;20466;-50
2023/03/18 04:33:00;;;;;;;12.77;7.27;;;10.50;48.70;;;;;;5033185;28;20225;-50
2023/03/18 04:35:26;;;;;;;15.13;7.13;;;10.50;46.30;;;;;;5033275;28;20194;-49
2023/03/18 04:37:53;;;;;;;12.13;6.47;;;10.60;57.20;;;;;;5033202;28;20424;-50
2023/03/18 04:40:19;;;;;;;15.80;7.13;;;10.60;50.10;;;;;;5036011;28;20432;-50
2023/03/18 04:42:46;;;;;;;12.27;7.67;;;10.50;92.90;;;;;;5036641;28;20472;-51
2023/03/18 04:45:14;;;;;;;12.23;7.87;;;10.50;95.00;;;;;;5036576;28;20463;-49
2023/03/18 04:47:41;;;;;;;11.60;7.90;;;10.60;99.90;;;;;;5036801;28;20456;-50
2023/03/18 04:50:10;;;;;;;11.47;8.40;;;10.60;99.90;;;;;;5036586;28;20448;-50
2023/03/18 04:52:37;;;;;;;14.80;8.10;;;10.60;99.90;;;;;;5036403;28;20421;-49
2023/03/18 04:55:03;;;;;;;15.03;9.00;;;10.60;99.90;;;;;;5036692;28;20416;-49
2023/03/18 04:57:30;;;;;;;14.43;8.80;;;10.60;99.90;;;;;;5036343;28;20471;-56
2023/03/18 04:59:57;;;;;;;13.93;8.93;;;10.60;99.90;;;;;;5036472;28;20467;-49
2023/03/18 05:02:23;;;;;;;17.40;9.70;;;10.70;99.90;;;;;;5036751;28;20776;-49
2023/03/18 05:04:49;;;;;;;16.20;9.30;;;10.70;99.90;;;;;;5036354;28;20514;-49
2023/03/18 05:07:15;;;;;;;17.30;9.47;;;10.70;99.90;;;;;;5036335;28;20930;-49
2023/03/18 05:09:42;;;;;;;17.27;10.07;;;10.70;99.90;;;;;;5036515;28;20190;-49
2023/03/18 05:12:15;;;;;;;19.73;10.47;;;10.70;99.90;;;;;;5036098;28;20471;-49
2023/03/18 05:14:41;;;;;;;14.97;9.80;;;10.80;99.90;;;;;;5036144;28;20442;-50
2023/03/18 05:17:14;;;;;;;19.60;10.23;;;10.70;99.90;;;;;;5036546;28;20417;-49
2023/03/18 05:19:46;;;;;;;16.63;10.17;;;10.70;99.90;;;;;;5035886;28;20500;-50
2023/03/18 05:22:14;;;;;;;27.20;11.03;;;10.80;99.90;;;;;;5036068;28;20454;-49
2023/03/18 05:24:42;;;;;;;19.10;10.70;;;10.70;99.90;;;;;;5036086;28;20420;-49
2023/03/18 05:27:12;;;;;;;20.17;11.47;;;10.70;99.90;;;;;;5036259;28;20425;-48
2023/03/18 05:29:39;;;;;;;18.10;11.17;;;10.70;99.90;;;;;;5035613;28;20425;-49
2023/03/18 05:32:08;;;;;;;21.33;10.93;;;10.70;99.90;;;;;;5035868;28;20465;-49
2023/03/18 05:34:38;;;;;;;21.83;12.77;;;10.70;99.90;;;;;;5035884;28;20925;-50
2023/03/18 05:37:06;;;;;;;19.00;11.40;;;10.70;99.90;;;;;;5035713;28;20428;-49
2023/03/18 05:39:32;;;;;;;22.33;11.60;;;10.70;99.90;;;;;;5035963;28;20425;-49
2023/03/18 05:41:59;;;;;;;20.17;12.30;;;10.70;99.90;;;;;;5035842;28;20436;-49
2023/03/18 05:44:25;;;;;;;26.63;11.70;;;10.60;1.00;;;;;;5035780;28;20908;-49
2023/03/18 05:46:51;;;;;;;22.57;11.90;;;10.60;1.00;;;;;;5035847;28;20413;-49
2023/03/18 05:49:18;;;;;;;16.30;11.47;;;10.60;1.00;;;;;;5035531;28;20793;-49
2023/03/18 05:51:45;;;;;;;19.30;11.73;;;10.60;1.00;;;;;;5035293;28;20230;-49
2023/03/18 05:54:11;;;;;;;22.03;11.83;;;10.60;1.00;;;;;;5035421;28;20777;-49
2023/03/18 05:56:36;;;;;;;19.43;11.50;;;10.60;1.00;;;;;;5035637;28;20452;-49
2023/03/18 05:59:04;;;;;;;25.37;11.17;;;10.60;1.00;;;;;;5035752;28;20420;-49
2023/03/18 06:01:31;;;;;;;14.93;11.37;;;10.60;1.00;;;;;;5035207;28;20268;-49
2023/03/18 06:03:58;;;;;;;18.70;11.70;;;10.50;1.00;;;;;;5035157;28;20773;-49
2023/03/18 06:06:24;;;;;;;17.40;11.07;;;10.50;1.00;;;;;;5035260;28;20428;-49
2023/03/18 06:08:51;;;;;;;17.77;11.50;;;10.60;1.00;;;;;;5035210;28;21179;-49
2023/03/18 06:11:17;;;;;;;17.63;10.97;;;10.60;1.00;;;;;;5035107;28;20464;-49
2023/03/18 06:13:44;;;;;;;19.03;11.53;;;10.60;1.00;;;;;;5034661;28;20912;-49
2023/03/18 06:16:10;;;;;;;18.53;12.67;;;10.60;1.00;;;;;;5035299;28;20208;-49
2023/03/18 06:18:36;;;;;;;20.13;12.30;;;10.60;1.00;;;;;;5035194;28;20413;-49
2023/03/18 06:21:02;;;;;;;22.17;12.30;;;10.60;1.00;;;;;;5035071;28;20432;-49
2023/03/18 06:23:28;;;;;;;18.83;12.30;;;10.60;1.00;;;;;;5034923;28;20421;-49
2023/03/18 06:25:54;;;;;;;19.33;11.77;;;10.60;1.00;;;;;;5034886;28;20451;-49
2023/03/18 06:28:19;;;;;;;16.90;12.40;;;10.60;1.00;;;;;;5034596;28;20191;-48
2023/03/18 06:30:45;;;;;;;22.40;12.27;;;10.60;1.00;;;;;;5034845;28;20551;-49
2023/03/18 06:33:11;;;;;;;24.00;12.53;;;10.70;1.00;;;;;;5034810;28;20186;-50
2023/03/18 06:35:37;;;;;;;21.60;12.40;;;10.70;1.00;;;;;;5034504;28;20189;-50
2023/03/18 06:38:03;;;;;;;19.10;12.00;;;10.70;1.00;;;;;;5034755;28;20511;-49
2023/03/18 06:40:29;;;;;;;24.00;12.80;;;10.70;1.00;;;;;;5034692;28;20645;-49
2023/03/18 06:42:55;;;;;;;22.40;13.00;;;10.70;1.00;;;;;;5034193;28;20567;-49
2023/03/18 06:45:21;;;;;;;19.67;13.07;;;10.70;1.00;;;;;;5034489;28;20417;-49
2023/03/18 06:47:48;;;;;;;20.53;12.53;;;10.80;1.00;;;;;;5034197;28;20193;-49
2023/03/18 06:50:15;;;;;;;25.97;13.77;;;10.90;1.00;;;;;;5034303;28;20518;-49
2023/03/18 06:52:41;;;;;;;23.23;13.30;;;10.80;1.00;;;;;;5034218;28;20761;-49
2023/03/18 06:55:08;;;;;;;19.53;12.30;;;10.90;1.00;;;;;;5034401;28;20435;-49
2023/03/18 06:57:34;;;;;;;20.00;11.97;;;10.90;1.00;;;;;;5034848;28;20768;-49
2023/03/18 07:00:00;;;;;;;19.70;11.87;;;10.90;99.90;;;;;;5033935;28;20413;-49
2023/03/18 07:02:26;;;;;;;17.87;12.20;;;10.90;99.90;;;;;;5033229;28;20182;-49
2023/03/18 07:04:52;;;;;;;25.60;13.33;;;11.00;99.90;;;;;;5034358;28;20193;-49
2023/03/18 07:07:18;;;;;;;22.10;12.93;;;11.10;99.90;;;;;;5034185;28;20751;-48
2023/03/18 07:09:43;;;;;;;22.33;11.87;;;11.10;99.90;;;;;;5033881;28;20233;-49
2023/03/18 07:12:13;;;;;;;28.37;12.80;;;11.20;99.90;;;;;;5033438;28;20493;-49
2023/03/18 07:14:39;;;;;;;22.87;13.03;;;11.20;99.90;;;;;;5034088;28;20190;-49
2023/03/18 07:17:05;;;;;;;20.03;11.67;;;11.30;99.90;;;;;;5033859;28;20947;-49
2023/03/18 07:19:32;;;;;;;24.30;11.87;;;11.30;99.90;;;;;;5034075;28;20546;-49
2023/03/18 07:21:58;;;;;;;20.27;13.23;;;11.40;99.90;;;;;;5034043;28;20417;-49
2023/03/18 07:24:25;;;;;;;20.43;12.83;;;11.40;99.90;;;;;;5033942;28;20516;-49
2023/03/18 07:26:51;;;;;;;21.77;12.07;;;11.40;99.90;;;;;;5033744;28;20429;-49
2023/03/18 07:29:17;;;;;;;19.67;11.57;;;11.40;99.90;;;;;;5033521;28;20893;-49
2023/03/18 07:31:43;;;;;;;18.80;11.97;;;11.40;99.90;;;;;;5033500;28;20530;-50
2023/03/18 07:34:09;;;;;;;20.00;12.63;;;11.50;99.90;;;;;;5034068;28;20896;-51
2023/03/18 07:36:35;;;;;;;22.10;11.73;;;11.50;99.90;;;;;;5033604;28;20193;-51
2023/03/18 07:39:02;;;;;;;18.07;12.30;;;11.50;99.90;;;;;;5033656;28;20417;-51
2023/03/18 07:41:28;;;;;;;17.43;11.90;;;11.50;99.90;;;;;;5033575;28;20425;-52
2023/03/18 07:43:54;;;;;;;18.13;11.83;;;11.50;99.90;;;;;;5033217;28;20808;-50
2023/03/18 07:46:20;;;;;;;20.00;11.83;;;11.50;99.90;;;;;;5033576;28;20186;-50
2023/03/18 07:48:46;;;;;;;20.90;13.00;;;11.50;99.90;;;;;;5033285;28;20206;-49
2023/03/18 07:51:13;;;;;;;16.83;11.57;;;11.50;99.90;;;;;;5033298;28;20460;-50
2023/03/18 07:53:39;;;;;;;18.70;12.70;;;11.50;99.90;;;;;;5033035;28;20441;-51
2023/03/18 07:56:06;;;;;;;19.73;12.43;;;11.40;99.90;;;;;;5033640;28;20436;-50
2023/03/18 07:58:33;;;;;;;26.60;13.70;;;11.50;99.90;;;;;;5033456;28;20178;-50
2023/03/18 08:00:58;;;;;;;19.60;11.83;;;11.50;99.90;;;;;;5032744;28;20928;-50
2023/03/18 08:03:24;;;;;;;23.10;13.23;;;11.50;99.90;;;;;;5033567;28;20423;-51
2023/03/18 08:05:50;;;;;;;22.93;12.77;;;11.50;99.90;;;;;;5033024;28;20634;-50
2023/03/18 08:08:16;;;;;;;22.40;12.37;;;11.50;99.90;;;;;;5033305;28;20196;-50
2023/03/18 08:10:42;;;;;;;22.37;12.03;;;11.50;99.90;;;;;;5033466;28;20305;-50
2023/03/18 08:13:07;;;;;;;19.47;12.60;;;11.50;99.90;;;;;;5033884;28;20938;-51
2023/03/18 08:15:33;;;;;;;20.53;11.90;;;11.60;99.90;;;;;;5037488;28;20182;-50
2023/03/18 08:17:59;;;;;;;23.30;12.50;;;11.60;99.90;;;;;;5037224;28;20269;-50
2023/03/18 08:20:25;;;;;;;21.30;12.87;;;11.60;99.90;;;;;;5037071;28;20186;-51
2023/03/18 08:22:51;;;;;;;21.47;13.10;;;11.70;99.90;;;;;;5037167;28;20182;-51
2023/03/18 08:25:17;;;;;;;21.50;12.87;;;11.60;99.90;;;;;;5036826;28;20563;-51
2023/03/18 08:27:42;;;;;;;18.07;11.20;;;11.70;99.90;;;;;;5037069;28;20178;-50
2023/03/18 08:30:09;;;;;;;21.43;12.40;;;11.70;99.90;;;;;;5036704;28;20262;-51
2023/03/18 08:32:35;;;;;;;18.10;12.43;;;11.70;99.90;;;;;;5036522;28;20614;-50
2023/03/18 08:35:01;;;;;;;25.60;13.17;;;11.70;99.90;;;;;;5037043;28;20501;-50
2023/03/18 08:37:27;;;;;;;25.47;12.13;;;11.70;99.90;;;;;;5036823;28;20186;-50
2023/03/18 08:39:53;;;;;;;19.63;12.80;;;11.70;99.90;;;;;;5036806;28;20882;-51
2023/03/18 08:42:19;;;;;;;19.53;13.23;;;11.70;99.90;;;;;;5036773;28;20417;-50
2023/03/18 08:44:45;;;;;;;23.00;12.87;;;11.70;99.90;;;;;;5036812;28;20245;-51
2023/03/18 08:47:11;;;;;;;20.70;12.63;;;11.70;99.90;;;;;;5036671;28;20511;-51
2023/03/18 08:49:37;;;;;;;17.90;11.73;;;11.70;99.90;;;;;;5036541;28;20227;-50
2023/03/18 08:52:03;;;;;;;19.67;12.13;;;11.70;99.90;;;;;;5036154;28;20628;-51
2023/03/18 08:54:28;;;;;;;18.73;12.00;;;11.80;99.90;;;;;;5036370;28;20467;-50
2023/03/18 08:56:55;;;;;;;25.63;12.57;;;11.70;99.90;;;;;;5036012;28;20193;-50
2023/03/18 08:59:21;;;;;;;22.33;12.50;;;11.70;99.90;;;;;;5036491;28;20192;-49
2023/03/18 09:01:49;;;;;;;26.83;13.50;;;11.70;99.90;;;;;;5036329;28;20471;-49
2023/03/18 09:04:15;;;;;;;21.83;13.80;;;11.70;99.90;;;;;;5036346;28;20186;-50
2023/03/18 09:06:41;;;;;;;25.63;14.27;;;11.70;99.90;;;;;;5036355;28;20466;-51
2023/03/18 09:09:07;;;;;;;24.60;13.57;;;11.70;99.90;;;;;;5036354;28;20209;-50
2023/03/18 09:11:33;;;;;;;26.23;13.97;;;11.70;99.90;;;;;;5036386;28;20940;-50
2023/03/18 09:13:59;;;;;;;28.10;14.80;;;11.70;99.90;;;;;;5035626;28;20182;-50
2023/03/18 09:16:25;;;;;;;24.13;14.00;;;11.60;1.00;;;;;;5036031;28;20428;-50
2023/03/18 09:18:50;;;;;;;23.77;14.17;;;11.60;1.00;;;;;;5036351;28;20505;-51
2023/03/18 09:21:17;;;;;;;22.00;13.67;;;11.50;1.00;;;;;;5036112;28;20195;-51
2023/03/18 09:23:43;;;;;;;24.00;14.80;;;11.50;1.00;;;;;;5035793;28;20193;-50
2023/03/18 09:26:10;;;;;;;29.20;15.20;;;11.40;98.60;;;;;;5035253;28;20520;-50
2023/03/18 09:28:36;;;;;;;24.70;14.90;;;11.40;99.90;;;;;;5035971;28;20420;-50
2023/03/18 09:31:02;;;;;;;21.97;15.07;;;11.40;99.90;;;;;;5035879;28;20457;-51
2023/03/18 09:33:28;;;;;;;27.43;14.10;;;11.40;99.90;;;;;;5035996;28;20194;-51
2023/03/18 09:35:54;;;;;;;22.77;14.57;;;11.50;99.90;;;;;;5035967;28;20901;-51
2023/03/18 09:38:21;;;;;;;24.03;14.57;;;11.60;55.50;;;;;;5035468;28;20424;-52
2023/03/18 09:40:54;;;;;;;29.73;15.00;;;11.60;16.80;;;;;;5035928;28;20190;-49
2023/03/18 09:43:51;;;;;;;31.03;15.00;;;11.70;1.00;;;;;;5035607;28;20582;-48
2023/03/18 09:46:35;;;;;;;23.60;14.00;;;11.70;1.00;;;;;;5036050;28;20448;-51
2023/03/18 09:49:04;;;;;;;24.17;14.97;;;11.70;1.00;;;;;;5035356;28;20420;-49
2023/03/18 09:51:55;;;;;;;29.17;15.97;;;11.70;1.00;;;;;;5035340;28;20472;-49
2023/03/18 09:54:23;;;;;;;27.00;15.43;;;11.60;1.00;;;;;;5035730;28;20416;-49
2023/03/18 09:56:51;;;;;;;23.50;15.77;;;11.60;1.00;;;;;;5035598;28;20429;-49
2023/03/18 09:59:22;;;;;;;27.07;15.80;;;11.70;1.00;;;;;;5035706;28;20429;-49
2023/03/18 10:01:53;;;;;;;26.43;16.23;;;11.80;1.00;;;;;;5035157;28;20928;-49
2023/03/18 10:04:42;;;;;;;24.30;14.07;;;11.80;1.00;;;;;;5034066;28;20449;-49
2023/03/18 10:07:18;;;;;;;24.20;15.33;;;12.00;1.00;;;;;;5035353;28;20437;-50
2023/03/18 10:09:58;;;;;;;29.57;14.40;;;12.40;99.90;;;;;;5035252;28;20409;-50
2023/03/18 10:12:37;;;;;;;32.00;15.07;;;12.80;99.90;;;;;;5035150;28;20484;-49
2023/03/18 10:15:12;;;;;;;25.40;14.07;;;12.90;99.90;;;;;;5034324;28;20469;-50
2023/03/18 10:17:53;;;;;;;22.20;13.70;;;13.00;99.90;;;;;;5034775;28;20456;-50
2023/03/18 10:20:36;;;;;;;18.80;13.57;;;13.10;91.40;;;;;;5035085;28;20409;-51
2023/03/18 10:23:01;;;;;;;17.87;12.60;;;13.20;87.40;;;;;;5034457;28;21074;-50
2023/03/18 10:25:51;;;;;;;23.10;13.10;;;13.20;61.60;;;;;;5034898;28;20483;-51
2023/03/18 10:28:35;;;;;;;20.93;12.43;;;13.20;41.00;;;;;;5035060;28;20420;-50
2023/03/18 10:31:21;;;;;;;19.53;13.43;;;13.20;14.40;;;;;;5034657;28;20514;-49
2023/03/18 10:34:05;;;;;;;19.00;13.17;;;13.20;7.90;;;;;;5035205;28;20421;-49
2023/03/18 10:37:04;;;;;;;24.63;13.00;;;13.40;8.10;;;;;;5033836;28;20782;-50
2023/03/18 10:39:32;;;;;;;18.37;13.60;;;13.60;1.00;;;;;;5034415;28;20523;-50
2023/03/18 10:42:01;;;;;;;21.70;12.80;;;13.80;1.00;;;;;;5034562;28;20433;-50
2023/03/18 10:44:37;;;;;;;17.60;12.67;;;14.10;1.00;;;;;;5034351;28;21094;-50
2023/03/18 10:47:08;;;;;;;18.60;11.90;;;14.70;1.00;;;;;;5034689;28;20428;-49
2023/03/18 10:49:39;;;;;;;17.50;11.63;;;15.40;1.00;;;;;;5034127;28;20977;-50
2023/03/18 10:52:31;;;;;;;19.17;12.20;;;16.10;1.00;;;;;;5034221;28;20933;-50
2023/03/18 10:54:57;;;;;;;18.03;12.00;;;16.00;1.00;;;;;;5034411;28;20405;-50
2023/03/18 10:57:23;;;;;;;17.67;12.33;;;15.80;1.00;;;;;;5034593;28;20980;-50
2023/03/18 10:59:50;;;;;;;18.80;11.93;;;15.50;1.00;;;;;;5033904;28;20412;-50
2023/03/18 11:02:37;;;;;;;17.57;12.40;;;15.50;1.00;;;;;;5034612;28;20436;-49
2023/03/18 11:05:11;;;;;;;21.27;12.57;;;15.60;1.00;;;;;;5033982;28;20967;-49
2023/03/18 11:08:02;;;;;;;16.00;11.70;;;16.00;1.00;;;;;;5033121;28;20409;-50
2023/03/18 11:10:34;;;;;;;19.43;14.10;;;16.90;1.00;;;;;;5034484;28;20611;-51
2023/03/18 11:13:01;;;;;;;18.83;12.47;;;18.00;1.00;;;;;;5034108;28;20501;-51
2023/03/18 11:15:28;;;;;;;16.60;11.57;;;19.30;1.00;;;;;;5034118;28;20479;-51
2023/03/18 11:17:59;;;;;;;14.93;10.67;;;19.50;1.00;;;;;;5034007;28;20778;-51
2023/03/18 11:20:43;;;;;;;18.10;10.80;;;19.30;1.00;;;;;;5034227;28;20816;-51
2023/03/18 11:23:19;;;;;;;18.10;10.40;;;19.50;1.00;;;;;;5033810;28;20920;-52
2023/03/18 11:25:51;;;;;;;15.37;10.53;;;19.60;1.00;;;;;;5033700;28;20416;-51
2023/03/18 11:28:25;;;;;;;13.37;10.90;;;19.20;1.00;;;;;;5033841;28;20921;-52
2023/03/18 11:30:55;;;;;;;17.23;11.40;;;19.20;1.00;;;;;;5033684;28;20550;-52
2023/03/18 11:33:28;;;;;;;16.20;10.90;;;19.40;1.00;;;;;;5033822;28;20494;-52
2023/03/18 11:35:57;;;;;;;18.57;11.37;;;19.50;1.00;;;;;;5033891;28;20736;-52
2023/03/18 11:38:34;;;;;;;15.80;11.30;;;19.30;1.00;;;;;;5034112;28;20583;-51
2023/03/18 11:41:09;;;;;;;14.97;10.63;;;19.50;1.00;;;;;;5033828;28;20411;-52
2023/03/18 11:43:36;;;;;;;14.70;10.60;;;20.30;1.00;;;;;;5033217;28;20491;-52
2023/03/18 11:46:05;;;;;;;15.07;10.23;;;20.90;1.00;;;;;;5032826;28;20402;-53
2023/03/18 11:48:31;;;;;;;14.83;10.83;;;21.80;1.00;;;;;;5033223;28;20182;-53
2023/03/18 11:51:26;;;;;;;13.60;9.80;;;21.90;1.00;;;;;;5033357;28;20471;-54
2023/03/18 11:54:29;;;;;;;13.43;9.98;;;21.70;1.00;;;;;;5032464;28;20462;-52
2023/03/18 11:57:01;;;;;;;14.53;10.03;;;21.40;1.00;;;;;;5021367;28;20204;-54
2023/03/18 11:59:36;;;;;;;18.50;9.57;;;21.40;1.00;;;;;;5033782;28;20409;-52
2023/03/18 12:02:25;;;;;;;13.00;9.27;;;21.20;1.00;;;;;;5034078;28;20511;-52
2023/03/18 12:05:00;;;;;;;10.77;9.07;;;21.10;1.00;;;;;;5033575;28;20415;-53
2023/03/18 12:07:55;;;;;;;11.27;9.37;;;20.80;1.00;;;;;;5033389;28;20431;-52
2023/03/18 12:10:35;;;;;;;11.87;9.00;;;20.80;1.00;;;;;;5033585;28;20417;-53
2023/03/18 12:13:31;;;;;;;13.17;8.90;;;21.50;1.00;;;;;;5033343;28;20417;-54
2023/03/18 12:16:09;;;;;;;12.80;8.87;;;22.20;1.00;;;;;;5033493;28;20409;-53
2023/03/18 12:18:49;;;;;;;12.23;8.13;;;22.80;1.00;;;;;;5033532;28;20408;-53
2023/03/18 12:21:27;;;;;;;12.80;9.37;;;22.30;1.00;;;;;;5033556;28;20420;-53
2023/03/18 12:24:05;;;;;;;11.00;8.20;;;22.00;1.00;;;;;;5033507;28;20421;-53
2023/03/18 12:26:50;;;;;;;8.87;7.87;;;21.40;1.00;;;;;;5033028;28;20915;-53
2023/03/18 12:29:35;;;;;;;12.40;8.27;;;21.40;1.00;;;;;;5033139;28;20413;-52
2023/03/18 12:32:35;;;;;;;11.40;8.10;;;22.00;1.00;;;;;;5033049;28;20544;-51
2023/03/18 12:35:15;;;;;;;10.40;8.10;;;22.60;1.00;;;;;;5025783;28;20842;-53
2023/03/18 12:38:23;;;;;;;9.87;7.60;;;22.70;1.00;;;;;;5032936;28;20916;-54
2023/03/18 12:41:12;;;;;;;11.67;8.17;;;22.70;1.00;;;;;;5032781;28;20436;-54
2023/03/18 12:43:44;;;;;;;9.97;7.23;;;22.80;1.00;;;;;;5033100;28;20469;-53
2023/03/18 12:46:39;;;;;;;9.97;7.60;;;22.80;1.00;;;;;;5033548;28;20421;-53
2023/03/18 12:49:13;;;;;;;8.67;7.13;;;22.90;1.00;;;;;;5032843;28;20432;-51
2023/03/18 12:51:48;;;;;;;7.87;6.57;;;22.10;1.00;;;;;;5032795;28;20447;-52
2023/03/18 12:54:22;;;;;;;9.53;6.90;;;21.00;1.00;;;;;;5032835;28;20431;-51